sensor_id;sensor_type;location;lat;lon;timestamp;pressure;altitude;pressure_sealevel;temperature;humidity
9421;BME280;4749;51.398;5.466;2023-02-03T00:02:13;102368.78;;;10.00;100.00
9421;BME280;4749;51.398;5.466;2023-02-03T00:04:41;102367.94;;;10.01;100.00
9421;BME280;4749;51.398;5.466;2023-02-03T00:07:10;102361.84;;;10.02;100.00
9421;BME280;4749;51.398;5.466;2023-02-03T00:09:38;102351.34;;;10.02;100.00
9421;BME280;4749;51.398;5.466;2023-02-03T00:12:06;102353.06;;;10.02;100.00
9421;BME280;4749;51.398;5.466;2023-02-03T00:14:34;102358.25;;;10.00;100.00
9421;BME280;4749;51.398;5.466;2023-02-03T00:17:04;102363.50;;;10.00;100.00
9421;BME280;4749;51.398;5.466;2023-02-03T00:19:31;102353.94;;;10.01;100.00
9421;BME280;4749;51.398;5.466;2023-02-03T00:21:58;102345.97;;;9.99;100.00
9421;BME280;4749;51.398;5.466;2023-02-03T00:24:26;102350.38;;;10.00;100.00
9421;BME280;4749;51.398;5.466;2023-02-03T00:26:53;102357.38;;;10.00;100.00
9421;BME280;4749;51.398;5.466;2023-02-03T00:29:20;102360.00;;;10.00;100.00
9421;BME280;4749;51.398;5.466;2023-02-03T00:31:52;102372.25;;;9.99;100.00
9421;BME280;4749;51.398;5.466;2023-02-03T00:34:21;102366.13;;;10.00;100.00
9421;BME280;4749;51.398;5.466;2023-02-03T00:36:48;102373.22;;;10.01;100.00
9421;BME280;4749;51.398;5.466;2023-02-03T00:39:15;102376.75;;;10.03;100.00
9421;BME280;4749;51.398;5.466;2023-02-03T00:41:42;102370.63;;;10.03;100.00
9421;BME280;4749;51.398;5.466;2023-02-03T00:44:10;102378.53;;;10.04;100.00
9421;BME280;4749;51.398;5.466;2023-02-03T01:28:25;102414.53;;;10.07;100.00
9421;BME280;4749;51.398;5.466;2023-02-03T01:30:53;102400.59;;;10.09;100.00
9421;BME280;4749;51.398;5.466;2023-02-03T01:33:20;102403.28;;;10.11;100.00
9421;BME280;4749;51.398;5.466;2023-02-03T01:35:47;102398.94;;;10.13;100.00
9421;BME280;4749;51.398;5.466;2023-02-03T01:38:14;102389.34;;;10.15;100.00
9421;BME280;4749;51.398;5.466;2023-02-03T01:40:42;102385.00;;;10.15;100.00
9421;BME280;4749;51.398;5.466;2023-02-03T01:43:10;102394.66;;;10.16;100.00
9421;BME280;4749;51.398;5.466;2023-02-03T01:45:39;102387.72;;;10.19;100.00
9421;BME280;4749;51.398;5.466;2023-02-03T01:48:07;102392.13;;;10.20;100.00
9421;BME280;4749;51.398;5.466;2023-02-03T01:50:36;102386.03;;;10.21;100.00
9421;BME280;4749;51.398;5.466;2023-02-03T01:53:09;102391.28;;;10.21;100.00
9421;BME280;4749;51.398;5.466;2023-02-03T01:55:41;102387.88;;;10.23;100.00
9421;BME280;4749;51.398;5.466;2023-02-03T01:58:31;102370.47;;;10.27;100.00
9421;BME280;4749;51.398;5.466;2023-02-03T02:01:01;102377.41;;;10.25;100.00
9421;BME280;4749;51.398;5.466;2023-02-03T02:03:35;102376.50;;;10.24;100.00
9421;BME280;4749;51.398;5.466;2023-02-03T02:06:08;102373.00;;;10.24;100.00
9421;BME280;4749;51.398;5.466;2023-02-03T02:08:36;102373.88;;;10.24;100.00
9421;BME280;4749;51.398;5.466;2023-02-03T02:11:05;102360.72;;;10.24;100.00
9421;BME280;4749;51.398;5.466;2023-02-03T02:13:34;102347.66;;;10.26;100.00
9421;BME280;4749;51.398;5.466;2023-02-03T02:44:24;102345.91;;;10.26;100.00
9421;BME280;4749;51.398;5.466;2023-02-03T02:46:57;102352.91;;;10.26;100.00
9421;BME280;4749;51.398;5.466;2023-02-03T02:49:34;102352.06;;;10.27;100.00
9421;BME280;4749;51.398;5.466;2023-02-03T02:52:07;102371.34;;;10.27;100.00
9421;BME280;4749;51.398;5.466;2023-02-03T02:54:40;102378.34;;;10.27;100.00
9421;BME280;4749;51.398;5.466;2023-02-03T02:57:10;102365.22;;;10.27;100.00
9421;BME280;4749;51.398;5.466;2023-02-03T02:59:39;102356.47;;;10.28;100.00
9421;BME280;4749;51.398;5.466;2023-02-03T03:02:07;102345.97;;;10.28;100.00
9421;BME280;4749;51.398;5.466;2023-02-03T03:04:36;102343.34;;;10.28;100.00
9421;BME280;4749;51.398;5.466;2023-02-03T03:07:18;102345.09;;;10.29;100.00
9421;BME280;4749;51.398;5.466;2023-02-03T03:09:58;102346.88;;;10.30;100.00
9421;BME280;4749;51.398;5.466;2023-02-03T03:12:44;102344.22;;;10.28;100.00
9421;BME280;4749;51.398;5.466;2023-02-03T03:15:21;102357.47;;;10.33;100.00
9421;BME280;4749;51.398;5.466;2023-02-03T03:18:03;102363.63;;;10.33;100.00
9421;BME280;4749;51.398;5.466;2023-02-03T03:20:32;102374.13;;;10.33;100.00
9421;BME280;4749;51.398;5.466;2023-02-03T03:23:08;102368.00;;;10.33;100.00
9421;BME280;4749;51.398;5.466;2023-02-03T03:25:48;102364.50;;;10.34;100.00
9421;BME280;4749;51.398;5.466;2023-02-03T03:28:26;102362.78;;;10.34;100.00
9421;BME280;4749;51.398;5.466;2023-02-03T03:30:56;102361.06;;;10.35;100.00
9421;BME280;4749;51.398;5.466;2023-02-03T03:33:24;102343.53;;;10.35;100.00
9421;BME280;4749;51.398;5.466;2023-02-03T03:39:04;102352.34;;;10.37;100.00
9421;BME280;4749;51.398;5.466;2023-02-03T03:42:31;102325.22;;;10.38;100.00
9421;BME280;4749;51.398;5.466;2023-02-03T03:48:15;102340.13;;;10.39;100.00
9421;BME280;4749;51.398;5.466;2023-02-03T03:51:37;102340.16;;;10.41;100.00
9421;BME280;4749;51.398;5.466;2023-02-03T03:54:08;102328.72;;;10.39;100.00
9421;BME280;4749;51.398;5.466;2023-02-03T03:59:20;102303.34;;;10.41;100.00
9421;BME280;4749;51.398;5.466;2023-02-03T04:01:49;102313.03;;;10.42;100.00
9421;BME280;4749;51.398;5.466;2023-02-03T04:04:17;102315.66;;;10.42;100.00
9421;BME280;4749;51.398;5.466;2023-02-03T04:06:45;102321.84;;;10.42;100.00
9421;BME280;4749;51.398;5.466;2023-02-03T04:09:12;102328.78;;;10.42;100.00
9421;BME280;4749;51.398;5.466;2023-02-03T04:11:39;102326.31;;;10.47;100.00
9421;BME280;4749;51.398;5.466;2023-02-03T04:14:25;102324.56;;;10.47;100.00
9421;BME280;4749;51.398;5.466;2023-02-03T04:16:52;102342.94;;;10.46;100.00
9421;BME280;4749;51.398;5.466;2023-02-03T04:19:19;102342.13;;;10.48;100.00
9421;BME280;4749;51.398;5.466;2023-02-03T04:21:47;102341.25;;;10.49;100.00
9421;BME280;4749;51.398;5.466;2023-02-03T04:24:14;102345.66;;;10.50;100.00
9421;BME280;4749;51.398;5.466;2023-02-03T04:26:41;102325.50;;;10.49;100.00
9421;BME280;4749;51.398;5.466;2023-02-03T04:29:09;102341.31;;;10.51;100.00
9421;BME280;4749;51.398;5.466;2023-02-03T04:31:36;102339.53;;;10.50;100.00
9421;BME280;4749;51.398;5.466;2023-02-03T04:34:05;102349.19;;;10.51;100.00
9421;BME280;4749;51.398;5.466;2023-02-03T04:36:32;102349.19;;;10.51;100.00
9421;BME280;4749;51.398;5.466;2023-02-03T04:38:59;102361.53;;;10.52;100.00
9421;BME280;4749;51.398;5.466;2023-02-03T04:41:26;102368.53;;;10.51;100.00
9421;BME280;4749;51.398;5.466;2023-02-03T04:43:53;102363.25;;;10.51;100.00
9421;BME280;4749;51.398;5.466;2023-02-03T04:46:21;102359.81;;;10.54;100.00
9421;BME280;4749;51.398;5.466;2023-02-03T04:48:48;102353.66;;;10.53;100.00
9421;BME280;4749;51.398;5.466;2023-02-03T04:51:15;102370.28;;;10.52;100.00
9421;BME280;4749;51.398;5.466;2023-02-03T04:53:42;102364.22;;;10.55;100.00
9421;BME280;4749;51.398;5.466;2023-02-03T04:56:09;102351.91;;;10.54;100.00
9421;BME280;4749;51.398;5.466;2023-02-03T04:58:36;102339.66;;;10.54;100.00
9421;BME280;4749;51.398;5.466;2023-02-03T05:01:08;102343.16;;;10.53;100.00
9421;BME280;4749;51.398;5.466;2023-02-03T05:03:36;102338.78;;;10.54;100.00
9421;BME280;4749;51.398;5.466;2023-02-03T05:06:03;102343.16;;;10.53;100.00
9421;BME280;4749;51.398;5.466;2023-02-03T05:08:31;102337.00;;;10.53;100.00
9421;BME280;4749;51.398;5.466;2023-02-03T05:10:58;102325.59;;;10.52;100.00
9421;BME280;4749;51.398;5.466;2023-02-03T05:13:28;102322.09;;;10.53;100.00
9421;BME280;4749;51.398;5.466;2023-02-03T05:15:55;102321.22;;;10.53;100.00
9421;BME280;4749;51.398;5.466;2023-02-03T05:18:22;102332.53;;;10.50;100.00
9421;BME280;4749;51.398;5.466;2023-02-03T05:20:49;102325.53;;;10.51;100.00
9421;BME280;4749;51.398;5.466;2023-02-03T05:23:16;102337.78;;;10.50;100.00
9421;BME280;4749;51.398;5.466;2023-02-03T05:25:43;102337.75;;;10.49;100.00
9421;BME280;4749;51.398;5.466;2023-02-03T05:28:11;102347.38;;;10.48;100.00
9421;BME280;4749;51.398;5.466;2023-02-03T05:30:39;102357.00;;;10.48;100.00
9421;BME280;4749;51.398;5.466;2023-02-03T05:33:06;102345.63;;;10.49;100.00
9421;BME280;4749;51.398;5.466;2023-02-03T05:35:34;102353.53;;;10.49;100.00
9421;BME280;4749;51.398;5.466;2023-02-03T05:38:01;102352.59;;;10.47;100.00
9421;BME280;4749;51.398;5.466;2023-02-03T05:40:28;102358.78;;;10.49;100.00
9421;BME280;4749;51.398;5.466;2023-02-03T05:43:14;102363.13;;;10.47;100.00
9421;BME280;4749;51.398;5.466;2023-02-03T05:45:42;102372.75;;;10.46;100.00
9421;BME280;4749;51.398;5.466;2023-02-03T05:48:09;102365.72;;;10.45;100.00
9421;BME280;4749;51.398;5.466;2023-02-03T05:50:37;102369.28;;;10.47;100.00
9421;BME280;4749;51.398;5.466;2023-02-03T05:53:06;102365.81;;;10.50;100.00
9421;BME280;4749;51.398;5.466;2023-02-03T05:55:34;102367.56;;;10.49;100.00
9421;BME280;4749;51.398;5.466;2023-02-03T05:58:01;102369.34;;;10.50;100.00
9421;BME280;4749;51.398;5.466;2023-02-03T06:00:29;102374.59;;;10.50;100.00
9421;BME280;4749;51.398;5.466;2023-02-03T06:02:59;102362.31;;;10.49;100.00
9421;BME280;4749;51.398;5.466;2023-02-03T06:05:29;102364.94;;;10.49;100.00
9421;BME280;4749;51.398;5.466;2023-02-03T06:07:57;102377.22;;;10.50;100.00
9421;BME280;4749;51.398;5.466;2023-02-03T06:10:25;102377.22;;;10.50;100.00
9421;BME280;4749;51.398;5.466;2023-02-03T06:12:53;102366.78;;;10.52;100.00
9421;BME280;4749;51.398;5.466;2023-02-03T06:15:20;102379.94;;;10.52;100.00
9421;BME280;4749;51.398;5.466;2023-02-03T06:17:48;102373.81;;;10.53;100.00
9421;BME280;4749;51.398;5.466;2023-02-03T06:20:18;102379.97;;;10.53;100.00
9421;BME280;4749;51.398;5.466;2023-02-03T06:22:46;102380.00;;;10.55;100.00
9421;BME280;4749;51.398;5.466;2023-02-03T06:25:13;102378.25;;;10.55;100.00
9421;BME280;4749;51.398;5.466;2023-02-03T06:27:40;102367.75;;;10.55;100.00
9421;BME280;4749;51.398;5.466;2023-02-03T06:30:09;102360.69;;;10.54;100.00
9421;BME280;4749;51.398;5.466;2023-02-03T06:32:37;102369.53;;;10.58;100.00
9421;BME280;4749;51.398;5.466;2023-02-03T06:35:04;102372.19;;;10.58;100.00
9421;BME280;4749;51.398;5.466;2023-02-03T06:37:31;102375.69;;;10.58;100.00
9421;BME280;4749;51.398;5.466;2023-02-03T06:39:59;102383.66;;;10.60;100.00
9421;BME280;4749;51.398;5.466;2023-02-03T06:42:26;102369.66;;;10.61;100.00
9421;BME280;4749;51.398;5.466;2023-02-03T06:44:53;102360.09;;;10.64;100.00
9421;BME280;4749;51.398;5.466;2023-02-03T06:47:21;102350.44;;;10.65;100.00
9421;BME280;4749;51.398;5.466;2023-02-03T06:49:48;102348.72;;;10.65;100.00
9421;BME280;4749;51.398;5.466;2023-02-03T06:52:15;102363.59;;;10.65;100.00
9421;BME280;4749;51.398;5.466;2023-02-03T06:54:42;102349.59;;;10.66;100.00
9421;BME280;4749;51.398;5.466;2023-02-03T06:57:09;102356.63;;;10.67;100.00
9421;BME280;4749;51.398;5.466;2023-02-03T06:59:37;102357.59;;;10.69;100.00
9421;BME280;4749;51.398;5.466;2023-02-03T07:02:04;102358.47;;;10.69;100.00
9421;BME280;4749;51.398;5.466;2023-02-03T07:04:31;102348.84;;;10.70;100.00
9421;BME280;4749;51.398;5.466;2023-02-03T07:06:58;102341.84;;;10.70;100.00
9421;BME280;4749;51.398;5.466;2023-02-03T07:09:25;102347.13;;;10.72;100.00
9421;BME280;4749;51.398;5.466;2023-02-03T07:11:52;102349.78;;;10.72;100.00
9421;BME280;4749;51.398;5.466;2023-02-03T07:14:19;102365.56;;;10.72;100.00
9421;BME280;4749;51.398;5.466;2023-02-03T07:16:46;102368.22;;;10.74;100.00
9421;BME280;4749;51.398;5.466;2023-02-03T07:19:13;102382.28;;;10.76;100.00
9421;BME280;4749;51.398;5.466;2023-02-03T07:21:41;102386.66;;;10.75;100.00
9421;BME280;4749;51.398;5.466;2023-02-03T07:24:08;102396.34;;;10.76;100.00
9421;BME280;4749;51.398;5.466;2023-02-03T07:26:35;102394.56;;;10.75;100.00
9421;BME280;4749;51.398;5.466;2023-02-03T07:29:02;102395.44;;;10.76;100.00
9421;BME280;4749;51.398;5.466;2023-02-03T07:31:30;102387.63;;;10.77;100.00
9421;BME280;4749;51.398;5.466;2023-02-03T07:33:57;102394.69;;;10.80;100.00
9421;BME280;4749;51.398;5.466;2023-02-03T07:36:24;102394.69;;;10.80;100.00
9421;BME280;4749;51.398;5.466;2023-02-03T07:38:53;102390.34;;;10.82;100.00
9421;BME280;4749;51.398;5.466;2023-02-03T07:41:21;102393.00;;;10.82;100.00
9421;BME280;4749;51.398;5.466;2023-02-03T07:43:48;102401.81;;;10.84;100.00
9421;BME280;4749;51.398;5.466;2023-02-03T07:46:15;102390.41;;;10.83;100.00
9421;BME280;4749;51.398;5.466;2023-02-03T07:48:42;102386.97;;;10.86;100.00
9421;BME280;4749;51.398;5.466;2023-02-03T07:51:10;102391.34;;;10.85;100.00
9421;BME280;4749;51.398;5.466;2023-02-03T07:53:37;102383.50;;;10.87;100.00
9421;BME280;4749;51.398;5.466;2023-02-03T07:56:04;102397.53;;;10.87;100.00
9421;BME280;4749;51.398;5.466;2023-02-03T07:58:32;102407.19;;;10.88;100.00
9421;BME280;4749;51.398;5.466;2023-02-03T08:00:59;102412.47;;;10.88;100.00
9421;BME280;4749;51.398;5.466;2023-02-03T08:03:26;102403.72;;;10.89;100.00
9421;BME280;4749;51.398;5.466;2023-02-03T08:05:53;102403.72;;;10.89;100.00
9421;BME280;4749;51.398;5.466;2023-02-03T08:08:20;102410.78;;;10.92;100.00
9421;BME280;4749;51.398;5.466;2023-02-03T08:10:48;102416.13;;;10.93;100.00
9421;BME280;4749;51.398;5.466;2023-02-03T08:13:15;102406.47;;;10.94;100.00
9421;BME280;4749;51.398;5.466;2023-02-03T08:15:42;102409.22;;;10.98;100.00
9421;BME280;4749;51.398;5.466;2023-02-03T08:18:09;102411.09;;;11.03;100.00
9421;BME280;4749;51.398;5.466;2023-02-03T08:20:38;102409.34;;;11.03;100.00
9421;BME280;4749;51.398;5.466;2023-02-03T08:23:06;102421.63;;;11.03;100.00
9421;BME280;4749;51.398;5.466;2023-02-03T08:25:33;102431.28;;;11.04;100.00
9421;BME280;4749;51.398;5.466;2023-02-03T08:28:00;102440.94;;;11.03;100.00
9421;BME280;4749;51.398;5.466;2023-02-03T08:30:28;102448.88;;;11.05;100.00
9421;BME280;4749;51.398;5.466;2023-02-03T08:32:57;102447.13;;;11.05;100.00
9421;BME280;4749;51.398;5.466;2023-02-03T08:35:24;102441.00;;;11.06;100.00
9421;BME280;4749;51.398;5.466;2023-02-03T08:37:51;102434.03;;;11.08;100.00
9421;BME280;4749;51.398;5.466;2023-02-03T08:40:19;102450.78;;;11.10;100.00
9421;BME280;4749;51.398;5.466;2023-02-03T08:42:46;102440.25;;;11.10;100.00
9421;BME280;4749;51.398;5.466;2023-02-03T08:45:13;102445.50;;;11.10;100.00
9421;BME280;4749;51.398;5.466;2023-02-03T08:47:40;102457.81;;;11.11;100.00
9421;BME280;4749;51.398;5.466;2023-02-03T08:50:09;102466.56;;;11.10;100.00
9421;BME280;4749;51.398;5.466;2023-02-03T08:52:36;102466.59;;;11.12;100.00
9421;BME280;4749;51.398;5.466;2023-02-03T08:55:04;102475.34;;;11.11;100.00
9421;BME280;4749;51.398;5.466;2023-02-03T08:57:35;102477.09;;;11.10;100.00
9421;BME280;4749;51.398;5.466;2023-02-03T09:00:04;102478.03;;;11.12;100.00
9421;BME280;4749;51.398;5.466;2023-02-03T09:02:32;102471.88;;;11.12;100.00
9421;BME280;4749;51.398;5.466;2023-02-03T09:04:59;102479.81;;;11.13;100.00
9421;BME280;4749;51.398;5.466;2023-02-03T09:07:26;102471.03;;;11.14;100.00
9421;BME280;4749;51.398;5.466;2023-02-03T09:09:53;102464.94;;;11.15;100.00
9421;BME280;4749;51.398;5.466;2023-02-03T09:12:21;102467.59;;;11.17;100.00
9421;BME280;4749;51.398;5.466;2023-02-03T09:14:50;102464.09;;;11.18;100.00
9421;BME280;4749;51.398;5.466;2023-02-03T09:17:17;102462.50;;;11.23;100.00
9421;BME280;4749;51.398;5.466;2023-02-03T09:19:44;102467.75;;;11.23;100.00
9421;BME280;4749;51.398;5.466;2023-02-03T09:22:12;102466.91;;;11.24;100.00
9421;BME280;4749;51.398;5.466;2023-02-03T09:24:39;102462.50;;;11.23;100.00
9421;BME280;4749;51.398;5.466;2023-02-03T09:27:06;102457.28;;;11.26;100.00
9421;BME280;4749;51.398;5.466;2023-02-03T09:29:34;102461.84;;;11.32;100.00
9421;BME280;4749;51.398;5.466;2023-02-03T09:32:01;102457.47;;;11.32;100.00
9421;BME280;4749;51.398;5.466;2023-02-03T09:34:33;102470.75;;;11.37;100.00
9421;BME280;4749;51.398;5.466;2023-02-03T09:37:00;102473.50;;;11.41;100.00
9421;BME280;4749;51.398;5.466;2023-02-03T09:39:28;102472.78;;;11.48;100.00
9421;BME280;4749;51.398;5.466;2023-02-03T09:45:28;102485.53;;;11.66;100.00
9421;BME280;4749;51.398;5.466;2023-02-03T09:48:11;102491.78;;;11.70;100.00
9421;BME280;4749;51.398;5.466;2023-02-03T09:50:40;102490.00;;;11.69;100.00
9421;BME280;4749;51.398;5.466;2023-02-03T09:53:40;102507.50;;;11.67;100.00
9421;BME280;4749;51.398;5.466;2023-02-03T09:56:31;102481.13;;;11.67;100.00
9421;BME280;4749;51.398;5.466;2023-02-03T09:58:59;102511.84;;;11.65;100.00
9421;BME280;4749;51.398;5.466;2023-02-03T10:01:42;102510.97;;;11.66;100.00
9421;BME280;4749;51.398;5.466;2023-02-03T10:04:37;102517.09;;;11.65;100.00
9421;BME280;4749;51.398;5.466;2023-02-03T10:10:32;102515.28;;;11.62;100.00
9421;BME280;4749;51.398;5.466;2023-02-03T10:13:24;102502.16;;;11.64;100.00
9421;BME280;4749;51.398;5.466;2023-02-03T10:18:53;102505.94;;;11.75;100.00
9421;BME280;4749;51.398;5.466;2023-02-03T10:21:33;102497.75;;;11.99;100.00
9421;BME280;4749;51.398;5.466;2023-02-03T10:24:42;102485.28;;;12.31;100.00
9421;BME280;4749;51.398;5.466;2023-02-03T10:27:22;102482.25;;;12.53;100.00
9421;BME280;4749;51.398;5.466;2023-02-03T10:32:32;102504.88;;;12.86;100.00
9421;BME280;4749;51.398;5.466;2023-02-03T10:35:01;102500.56;;;12.89;100.00
9421;BME280;4749;51.398;5.466;2023-02-03T10:37:42;102490.06;;;12.92;100.00
9421;BME280;4749;51.398;5.466;2023-02-03T10:40:13;102501.59;;;12.98;100.00
9421;BME280;4749;51.398;5.466;2023-02-03T10:42:43;102490.22;;;13.02;100.00
9421;BME280;4749;51.398;5.466;2023-02-03T10:45:36;102488.88;;;13.20;100.00
9421;BME280;4749;51.398;5.466;2023-02-03T10:48:09;102484.53;;;13.24;100.00
9421;BME280;4749;51.398;5.466;2023-02-03T10:50:47;102485.53;;;13.31;100.00
9421;BME280;4749;51.398;5.466;2023-02-03T10:53:26;102500.50;;;13.32;100.00
9421;BME280;4749;51.398;5.466;2023-02-03T10:56:13;102509.28;;;13.31;100.00
9421;BME280;4749;51.398;5.466;2023-02-03T10:58:54;102501.38;;;13.32;100.00
9421;BME280;4749;51.398;5.466;2023-02-03T11:01:43;102509.34;;;13.34;100.00
9421;BME280;4749;51.398;5.466;2023-02-03T11:04:30;102505.84;;;13.36;100.00
9421;BME280;4749;51.398;5.466;2023-02-03T11:07:05;102493.72;;;13.46;100.00
9421;BME280;4749;51.398;5.466;2023-02-03T11:09:40;102497.25;;;13.46;100.00
9421;BME280;4749;51.398;5.466;2023-02-03T11:12:16;102510.25;;;13.36;100.00
9421;BME280;4749;51.398;5.466;2023-02-03T11:14:50;102517.13;;;13.26;100.00
9421;BME280;4749;51.398;5.466;2023-02-03T11:17:24;102508.31;;;13.26;100.00
9421;BME280;4749;51.398;5.466;2023-02-03T11:20:02;102510.84;;;13.19;100.00
9421;BME280;4749;51.398;5.466;2023-02-03T11:22:35;102508.13;;;13.16;100.00
9421;BME280;4749;51.398;5.466;2023-02-03T11:25:19;102514.22;;;13.12;100.00
9421;BME280;4749;51.398;5.466;2023-02-03T11:27:53;102508.84;;;13.08;100.00
9421;BME280;4749;51.398;5.466;2023-02-03T11:30:26;102507.91;;;13.06;100.00
9421;BME280;4749;51.398;5.466;2023-02-03T11:32:59;102505.25;;;13.04;100.00
9421;BME280;4749;51.398;5.466;2023-02-03T11:35:28;102507.91;;;13.06;100.00
9421;BME280;4749;51.398;5.466;2023-02-03T11:38:01;102497.41;;;13.09;100.00
9421;BME280;4749;51.398;5.466;2023-02-03T11:40:34;102505.44;;;13.13;100.00
9421;BME280;4749;51.398;5.466;2023-02-03T11:43:15;102503.75;;;13.18;100.00
9421;BME280;4749;51.398;5.466;2023-02-03T11:45:47;102503.84;;;13.21;100.00
9421;BME280;4749;51.398;5.466;2023-02-03T12:15:23;102513.72;;;12.86;100.00
9421;BME280;4749;51.398;5.466;2023-02-03T12:18:47;102505.13;;;12.98;100.00
9421;BME280;4749;51.398;5.466;2023-02-03T12:21:42;102499.97;;;13.04;100.00
9421;BME280;4749;51.398;5.466;2023-02-03T12:27:53;102509.56;;;13.01;100.00
9421;BME280;4749;51.398;5.466;2023-02-03T12:30:42;102508.69;;;13.00;100.00
9421;BME280;4749;51.398;5.466;2023-02-03T12:33:22;102514.00;;;13.02;100.00
9421;BME280;4749;51.398;5.466;2023-02-03T12:35:56;102504.31;;;13.02;100.00
9421;BME280;4749;51.398;5.466;2023-02-03T12:38:40;102512.47;;;13.13;100.00
9421;BME280;4749;51.398;5.466;2023-02-03T12:41:29;102505.53;;;13.19;100.00
9421;BME280;4749;51.398;5.466;2023-02-03T12:44:21;102507.38;;;13.22;100.00
9421;BME280;4749;51.398;5.466;2023-02-03T12:47:21;102516.94;;;13.18;100.00
9421;BME280;4749;51.398;5.466;2023-02-03T12:55:36;102525.50;;;13.04;100.00
9421;BME280;4749;51.398;5.466;2023-02-03T13:06:24;102535.66;;;12.84;100.00
9421;BME280;4749;51.398;5.466;2023-02-03T13:12:15;102541.66;;;12.77;100.00
9421;BME280;4749;51.398;5.466;2023-02-03T13:15:28;102534.53;;;12.71;100.00
9421;BME280;4749;51.398;5.466;2023-02-03T13:18:33;102535.38;;;12.70;100.00
9421;BME280;4749;51.398;5.466;2023-02-03T13:21:00;102543.28;;;12.70;100.00
9421;BME280;4749;51.398;5.466;2023-02-03T13:23:28;102534.53;;;12.73;100.00
9421;BME280;4749;51.398;5.466;2023-02-03T13:26:45;102536.38;;;12.77;100.00
9421;BME280;4749;51.398;5.466;2023-02-03T13:32:26;102540.94;;;12.85;100.00
9421;BME280;4749;51.398;5.466;2023-02-03T13:41:36;102549.19;;;13.02;100.00
9421;BME280;4749;51.398;5.466;2023-02-03T13:44:27;102543.91;;;13.01;100.00
9421;BME280;4749;51.398;5.466;2023-02-03T13:46:57;102544.88;;;13.06;100.00
9421;BME280;4749;51.398;5.466;2023-02-03T13:49:30;102545.94;;;13.14;100.00
9421;BME280;4749;51.398;5.466;2023-02-03T13:52:01;102543.31;;;13.15;100.00
9421;BME280;4749;51.398;5.466;2023-02-03T13:54:43;102557.38;;;13.14;100.00
9421;BME280;4749;51.398;5.466;2023-02-03T13:57:46;102561.69;;;13.11;100.00
9421;BME280;4749;51.398;5.466;2023-02-03T14:05:53;102547.88;;;13.71;100.00
9421;BME280;4749;51.398;5.466;2023-02-03T14:16:45;102555.56;;;13.59;100.00
9421;BME280;4749;51.398;5.466;2023-02-03T14:19:52;102558.91;;;13.47;100.00
9421;BME280;4749;51.398;5.466;2023-02-03T14:22:16;102555.13;;;13.34;100.00
9421;BME280;4749;51.398;5.466;2023-02-03T14:24:46;102557.91;;;13.42;100.00
9421;BME280;4749;51.398;5.466;2023-02-03T14:27:23;102573.97;;;13.52;100.00
9421;BME280;4749;51.398;5.466;2023-02-03T14:30:12;102551.19;;;13.59;100.00
9421;BME280;4749;51.398;5.466;2023-02-03T14:33:00;102555.69;;;13.65;100.00
9421;BME280;4749;51.398;5.466;2023-02-03T14:35:38;102561.75;;;13.59;100.00
9421;BME280;4749;51.398;5.466;2023-02-03T14:38:13;102558.19;;;13.56;100.00
9421;BME280;4749;51.398;5.466;2023-02-03T14:40:58;102565.16;;;13.53;100.00
9421;BME280;4749;51.398;5.466;2023-02-03T14:43:42;102565.06;;;13.47;100.00
9421;BME280;4749;51.398;5.466;2023-02-03T14:49:34;102564.91;;;13.38;100.00
9421;BME280;4749;51.398;5.466;2023-02-03T14:52:15;102571.06;;;13.37;100.00
9421;BME280;4749;51.398;5.466;2023-02-03T14:55:26;102564.75;;;13.29;100.00
9421;BME280;4749;51.398;5.466;2023-02-03T14:58:14;102567.25;;;13.23;100.00
9421;BME280;4749;51.398;5.466;2023-02-03T15:00:42;102560.97;;;13.18;100.00
9421;BME280;4749;51.398;5.466;2023-02-03T15:05:42;102570.28;;;12.99;100.00
9421;BME280;4749;51.398;5.466;2023-02-03T15:08:46;102575.41;;;12.91;100.00
9421;BME280;4749;51.398;5.466;2023-02-03T15:11:29;102584.03;;;12.83;100.00
9421;BME280;4749;51.398;5.466;2023-02-03T15:14:23;102576.91;;;12.79;100.00
9421;BME280;4749;51.398;5.466;2023-02-03T15:17:09;102581.22;;;12.75;100.00
9421;BME280;4749;51.398;5.466;2023-02-03T15:19:41;102591.63;;;12.69;100.00
9421;BME280;4749;51.398;5.466;2023-02-03T15:22:37;102591.53;;;12.63;100.00
9421;BME280;4749;51.398;5.466;2023-02-03T15:25:17;102586.97;;;12.56;100.00
9421;BME280;4749;51.398;5.466;2023-02-03T15:27:45;102590.44;;;12.53;100.00
9421;BME280;4749;51.398;5.466;2023-02-03T15:30:27;102590.38;;;12.52;100.00
9421;BME280;4749;51.398;5.466;2023-02-03T15:33:10;102587.69;;;12.50;100.00
9421;BME280;4749;51.398;5.466;2023-02-03T15:35:41;102593.09;;;12.55;100.00
9421;BME280;4749;51.398;5.466;2023-02-03T15:38:29;102591.31;;;12.54;100.00
9421;BME280;4749;51.398;5.466;2023-02-03T15:40:58;102595.66;;;12.52;100.00
9421;BME280;4749;51.398;5.466;2023-02-03T15:43:35;102607.88;;;12.47;100.00
9421;BME280;4749;51.398;5.466;2023-02-03T15:51:52;102608.50;;;12.36;100.00
9421;BME280;4749;51.398;5.466;2023-02-03T15:54:40;102607.53;;;12.33;100.00
9421;BME280;4749;51.398;5.466;2023-02-03T15:57:28;102616.28;;;12.30;100.00
9421;BME280;4749;51.398;5.466;2023-02-03T16:00:23;102610.06;;;12.28;100.00
9421;BME280;4749;51.398;5.466;2023-02-03T16:02:53;102612.59;;;12.24;100.00
9421;BME280;4749;51.398;5.466;2023-02-03T16:05:25;102622.25;;;12.23;100.00
9421;BME280;4749;51.398;5.466;2023-02-03T16:07:54;102624.81;;;12.20;100.00
9421;BME280;4749;51.398;5.466;2023-02-03T16:10:32;102627.47;;;12.20;100.00
9421;BME280;4749;51.398;5.466;2023-02-03T16:13:26;102630.09;;;12.20;100.00
9421;BME280;4749;51.398;5.466;2023-02-03T16:16:06;102637.06;;;12.18;100.00
9421;BME280;4749;51.398;5.466;2023-02-03T16:18:40;102636.13;;;12.16;100.00
9421;BME280;4749;51.398;5.466;2023-02-03T16:21:27;102640.53;;;12.16;100.00
9421;BME280;4749;51.398;5.466;2023-02-03T16:23:56;102657.19;;;12.15;100.00
9421;BME280;4749;51.398;5.466;2023-02-03T16:26:29;102650.13;;;12.12;100.00
9421;BME280;4749;51.398;5.466;2023-02-03T16:31:52;102672.06;;;12.11;100.00